Time;durP1;ratioP1;P1;durP2;ratioP2;P2;SDS_P1;SDS_P2;PMS_P1;PMS_P2;Temp;Humidity;BMP_temperature;BMP_pressure;BME280_temperature;BME280_humidity;BME280_pressure;Samples;Min_cycle;Max_cycle;Signal;HPM_P1;HPM_P2
2023/03/13 00:03:35;;;;;;;;;;;10.00;56.60;;;8.45;58.54;100298.44;12276061;19;20279;-85
2023/03/13 00:07:36;;;;;;;;;;;10.00;56.70;;;8.59;58.79;100305.53;12279312;19;20335;-85
2023/03/13 00:11:38;;;;;;;;;;;10.00;56.50;;;8.55;58.86;100296.19;12275428;19;19943;-85
2023/03/13 00:15:40;;;;;;;;;;;10.00;56.60;;;8.57;58.68;100291.75;12275864;19;19987;-85
2023/03/13 00:19:41;;;;;;;;;;;10.30;56.90;;;8.39;58.84;100268.38;12274129;19;19915;-85
2023/03/13 00:23:43;;;;;;;;;;;10.10;56.70;;;8.60;58.77;100294.19;12269120;19;19923;-85
2023/03/13 00:27:44;;;;;;;;;;;10.10;56.70;;;8.62;58.80;100277.56;12274552;19;20018;-85
2023/03/13 00:31:46;;;;;;;;;;;10.20;56.90;;;8.67;58.62;100284.28;12271562;19;19927;-85
2023/03/13 00:35:48;;;;;;;;;;;10.20;56.90;;;8.75;58.84;100298.56;12275572;19;20555;-85
2023/03/13 00:39:50;;;;;;;;;;;10.20;56.80;;;8.66;58.66;100270.41;12272758;19;19919;-85
2023/03/13 00:43:56;;;;;;;;;;;10.20;56.90;;;8.69;58.74;100262.44;12265679;19;20223;-85
2023/03/13 00:47:58;;;;;;;;;;;10.20;57.00;;;8.78;58.75;100271.53;12270625;19;19926;-85
2023/03/13 00:52:00;;;;;;;;;;;10.30;57.00;;;8.83;58.88;100259.94;12265750;19;19967;-84
2023/03/13 00:56:04;;;;;;;;;;;10.30;56.90;;;8.92;58.80;100266.38;12269968;19;19943;-85
2023/03/13 01:00:07;;;;;;;;;;;10.40;57.00;;;8.81;58.73;100240.13;12269483;19;19923;-85
2023/03/13 01:04:11;;;;;;;;;;;10.40;57.10;;;8.88;58.72;100238.81;12267191;19;19931;-84
2023/03/13 01:08:12;;;;;;;;;;;10.40;57.00;;;8.88;58.99;100230.19;12268458;19;19923;-84
2023/03/13 01:12:14;;;;;;;;;;;10.50;57.20;;;8.95;58.90;100239.34;12266942;19;19953;-84
2023/03/13 01:16:18;;;;;;;;;;;10.50;57.10;;;9.01;58.92;100245.03;12266789;19;19914;-85
2023/03/13 01:20:19;;;;;;;;;;;10.50;57.20;;;9.07;58.78;100249.03;12264953;19;19999;-85
2023/03/13 01:24:23;;;;;;;;;;;10.50;57.10;;;9.01;58.90;100229.41;12268171;19;19910;-85
2023/03/13 01:28:25;;;;;;;;;;;10.60;57.30;;;9.02;58.90;100223.28;12263487;19;19922;-84
2023/03/13 01:32:31;;;;;;;;;;;10.60;57.20;;;8.93;58.92;100202.13;12262361;19;19918;-84
2023/03/13 01:36:35;;;;;;;;;;;10.60;57.20;;;9.19;58.93;100243.16;12264457;19;19915;-84
2023/03/13 01:40:48;;;;;;;;;;;10.60;57.10;;;9.20;58.88;100246.59;12262664;19;19923;-84
2023/03/13 01:44:55;;;;;;;;;;;10.70;57.10;;;9.23;59.04;100236.81;12261374;19;19919;-85
2023/03/13 01:49:05;;;;;;;;;;;10.70;57.10;;;9.27;58.83;100238.34;12259534;19;19918;-85
2023/03/13 01:53:12;;;;;;;;;;;10.70;57.00;;;9.21;58.99;100217.88;12258775;19;20344;-84
2023/03/13 01:57:43;;;;;;;;;;;10.70;57.20;;;9.31;59.10;100216.38;12261375;19;19917;-85
2023/03/13 02:01:46;;;;;;;;;;;10.70;57.10;;;9.21;58.97;100197.03;12261783;19;19940;-84
2023/03/13 02:05:49;;;;;;;;;;;10.80;57.10;;;9.29;58.88;100215.66;12263135;19;19922;-84
2023/03/13 02:09:53;;;;;;;;;;;10.80;57.10;;;9.37;58.99;100214.34;12257952;19;19996;-85
2023/03/13 02:13:57;;;;;;;;;;;10.80;57.10;;;9.25;58.96;100188.09;12258363;19;19939;-84
2023/03/13 02:17:59;;;;;;;;;;;10.90;57.30;;;9.35;59.11;100203.19;12259147;19;19919;-85
2023/03/13 02:22:32;;;;;;;;;;;11.00;57.10;;;9.40;59.06;100202.00;12253925;19;20365;-85
2023/03/13 02:26:34;;;;;;;;;;;10.90;57.10;;;9.34;59.03;100172.84;12254511;19;20626;-84
2023/03/13 02:30:37;;;;;;;;;;;10.90;57.00;;;9.41;59.10;100172.41;12254637;19;20230;-84
2023/03/13 02:34:40;;;;;;;;;;;10.90;57.10;;;9.40;59.10;100170.72;12257756;19;19922;-84
2023/03/13 02:38:50;;;;;;;;;;;10.90;57.00;;;9.32;58.98;100146.91;12256759;19;19951;-85
2023/03/13 02:42:53;;;;;;;;;;;10.90;57.00;;;9.42;58.98;100168.00;12254674;19;19911;-84
2023/03/13 02:46:55;;;;;;;;;;;10.90;57.10;;;9.46;58.95;100162.53;12252652;19;19929;-84
2023/03/13 02:51:03;;;;;;;;;;;10.90;57.10;;;9.48;59.16;100163.28;12253900;19;20257;-84
2023/03/13 02:55:09;;;;;;;;;;;10.90;57.00;;;9.37;59.04;100138.78;12254266;19;19919;-84
2023/03/13 02:59:11;;;;;;;;;;;10.90;57.10;;;9.21;59.14;100113.66;12253279;19;19911;-85
2023/03/13 03:03:16;;;;;;;;;;;10.90;57.00;;;9.28;59.07;100114.94;12262672;19;19914;-85
2023/03/13 03:07:18;;;;;;;;;;;10.90;57.20;;;9.41;59.17;100119.44;12260323;19;19923;-84
2023/03/13 03:11:20;;;;;;;;;;;11.00;57.10;;;9.48;59.12;100134.63;12275063;19;19950;-86
2023/03/13 03:15:27;;;;;;;;;;;11.00;57.20;;;9.47;59.23;100117.28;12295002;19;19932;-86
2023/03/13 03:19:29;;;;;;;;;;;11.00;57.10;;;9.49;59.05;100118.03;12293492;19;19922;-86
2023/03/13 03:23:34;;;;;;;;;;;11.00;57.10;;;9.56;59.10;100118.53;12287458;19;20339;-86
2023/03/13 03:27:36;;;;;;;;;;;11.00;57.00;;;9.57;59.21;100112.38;12289204;19;19919;-86
2023/03/13 03:31:41;;;;;;;;;;;11.00;57.50;;;9.59;59.01;100113.13;12285990;19;19948;-85
2023/03/13 03:35:44;;;;;;;;;;;11.00;57.20;;;9.58;59.14;100103.59;12286153;19;19947;-85
2023/03/13 03:39:47;;;;;;;;;;;11.00;57.30;;;9.63;59.05;100103.34;12282486;19;19919;-85
2023/03/13 03:43:50;;;;;;;;;;;11.10;57.20;;;9.42;59.20;100063.78;12280546;19;19919;-85
2023/03/13 03:47:58;;;;;;;;;;;11.10;57.40;;;9.67;59.21;100095.25;12279421;19;20340;-85
2023/03/13 03:52:00;;;;;;;;;;;11.10;57.30;;;9.65;59.29;100085.84;12269338;19;20321;-84
2023/03/13 03:56:07;;;;;;;;;;;11.10;57.40;;;9.65;59.13;100081.44;12261923;19;19922;-84
2023/03/13 04:00:15;;;;;;;;;;;11.10;57.30;;;9.53;59.29;100053.53;12259952;19;19925;-84
2023/03/13 04:04:22;;;;;;;;;;;11.20;57.50;;;9.69;59.23;100062.09;12261595;19;19919;-84
2023/03/13 04:08:29;;;;;;;;;;;11.20;57.40;;;9.77;59.16;100071.19;12270093;19;19911;-85
2023/03/13 04:12:31;;;;;;;;;;;11.20;57.60;;;9.69;59.10;100046.47;12258810;19;19929;-84
2023/03/13 04:16:33;;;;;;;;;;;11.20;57.50;;;9.80;59.32;100060.56;12263957;19;20635;-85
2023/03/13 04:20:36;;;;;;;;;;;11.20;57.50;;;9.81;59.19;100039.63;12259627;19;19938;-84
2023/03/13 04:24:38;;;;;;;;;;;11.30;57.50;;;9.58;59.14;99994.13;12259426;19;19945;-84
2023/03/13 04:28:39;;;;;;;;;;;11.30;57.40;;;9.86;59.13;100034.13;12260724;19;19998;-84
2023/03/13 04:32:42;;;;;;;;;;;11.30;57.30;;;9.86;59.24;100019.31;12257803;19;19934;-84
2023/03/13 04:36:54;;;;;;;;;;;11.30;57.30;;;9.88;59.10;100013.97;12261638;19;20269;-84
2023/03/13 04:41:15;;;;;;;;;;;11.30;57.40;;;9.90;59.28;100012.94;12256476;19;19947;-84
2023/03/13 04:45:38;;;;;;;;;;;11.40;57.30;;;9.82;59.13;99983.91;12257271;19;19919;-84
2023/03/13 04:50:12;;;;;;;;;;;11.40;57.30;;;9.92;59.24;99989.41;12255941;19;19925;-84
2023/03/13 04:54:36;;;;;;;;;;;11.40;57.20;;;9.94;59.27;99983.16;12265962;19;19919;-84
2023/03/13 04:58:44;;;;;;;;;;;11.40;57.40;;;9.96;59.28;99981.28;12262766;19;19919;-84
2023/03/13 05:02:52;;;;;;;;;;;11.40;57.30;;;10.01;59.23;99974.91;12258227;19;20325;-85
2023/03/13 05:07:02;;;;;;;;;;;11.40;57.20;;;9.98;59.35;99965.53;12258172;19;19915;-84
2023/03/13 05:11:23;;;;;;;;;;;11.50;57.30;;;10.05;59.18;99971.19;12258702;19;19914;-85
2023/03/13 05:15:47;;;;;;;;;;;11.50;57.30;;;10.05;59.36;99952.94;12257279;19;19919;-84
2023/03/13 05:20:10;;;;;;;;;;;11.50;57.30;;;10.07;59.31;99944.06;12257071;19;20249;-84
2023/03/13 05:24:22;;;;;;;;;;;11.50;57.30;;;9.98;59.28;99915.97;12253758;19;19926;-84
2023/03/13 05:28:34;;;;;;;;;;;11.50;57.30;;;10.09;59.17;99917.88;12257284;19;19945;-84
2023/03/13 05:33:03;;;;;;;;;;;11.60;57.30;;;10.13;59.42;99914.97;12252861;19;20344;-84
2023/03/13 05:37:23;;;;;;;;;;;11.60;57.60;;;10.12;59.31;99902.84;12257805;19;19918;-84
2023/03/13 05:41:32;;;;;;;;;;;11.60;57.30;;;10.14;59.29;99895.75;12258955;19;19907;-84
2023/03/13 05:45:49;;;;;;;;;;;11.60;57.60;;;10.16;59.33;99893.88;12255257;19;19925;-84
2023/03/13 05:50:10;;;;;;;;;;;11.60;57.60;;;9.97;59.33;99856.91;12278833;19;19915;-84
2023/03/13 05:54:32;;;;;;;;;;;11.60;57.50;;;10.15;59.36;99871.34;12295674;19;19919;-85
2023/03/13 05:59:09;;;;;;;;;;;11.60;57.40;;;9.68;59.42;99791.88;12294623;19;19951;-85
2023/03/13 06:03:34;;;;;;;;;;;11.60;57.70;;;10.22;59.28;99863.09;12294034;19;19914;-85
2023/03/13 06:07:36;;;;;;;;;;;11.60;57.70;;;10.16;59.23;99849.53;12295272;19;19915;-85
2023/03/13 06:11:38;;;;;;;;;;;11.60;57.80;;;10.24;59.34;99850.78;12281312;19;20109;-85
2023/03/13 06:15:40;;;;;;;;;;;11.70;57.80;;;10.24;59.31;99849.00;12288767;19;19907;-84
2023/03/13 06:19:49;;;;;;;;;;;11.70;58.20;;;10.16;59.47;99826.03;12277713;19;19918;-84
2023/03/13 06:23:51;;;;;;;;;;;11.70;57.90;;;10.29;59.54;99835.66;12265482;19;19918;-84
2023/03/13 06:27:53;;;;;;;;;;;11.70;57.90;;;10.26;59.43;99828.00;12267860;19;19926;-84
2023/03/13 06:31:54;;;;;;;;;;;11.70;57.90;;;10.27;59.40;99816.66;12273454;19;20412;-86
2023/03/13 06:35:58;;;;;;;;;;;11.70;57.80;;;10.08;59.42;99776.16;12264727;19;19927;-84
2023/03/13 06:40:00;;;;;;;;;;;11.70;58.20;;;10.29;59.42;99794.78;12266545;19;19943;-85
2023/03/13 06:44:02;;;;;;;;;;;11.80;58.00;;;10.11;59.38;99759.47;12272664;19;19915;-84
2023/03/13 06:48:04;;;;;;;;;;;11.80;57.90;;;10.35;59.51;99783.06;12272912;19;20322;-85
2023/03/13 06:52:05;;;;;;;;;;;11.80;58.00;;;10.28;59.52;99755.72;12260769;19;19910;-87
2023/03/13 06:56:07;;;;;;;;;;;11.80;58.10;;;10.31;59.51;99758.13;12262450;19;19930;-86
2023/03/13 07:00:10;;;;;;;;;;;11.70;58.60;;;10.34;59.48;99755.28;12259878;19;20337;-87
2023/03/13 07:04:12;;;;;;;;;;;11.80;58.90;;;10.36;59.43;99741.19;12257406;19;19923;-86
2023/03/13 07:08:13;;;;;;;;;;;11.80;58.40;;;10.42;59.48;99739.94;12261778;19;19915;-84
2023/03/13 07:12:16;;;;;;;;;;;11.80;58.50;;;10.41;59.52;99726.03;12258691;19;19915;-85
2023/03/13 07:16:17;;;;;;;;;;;11.80;58.60;;;10.39;59.61;99725.31;12262454;19;19917;-84
2023/03/13 07:20:19;;;;;;;;;;;11.80;58.30;;;10.25;59.58;99688.06;12263364;19;19935;-85
2023/03/13 07:24:21;;;;;;;;;;;11.90;58.80;;;10.43;59.64;99710.28;12260680;19;19915;-84
2023/03/13 07:28:23;;;;;;;;;;;11.90;58.40;;;10.41;59.69;99704.34;12260586;19;20326;-85
2023/03/13 07:32:25;;;;;;;;;;;11.90;58.40;;;10.55;59.65;99709.41;12256600;19;20345;-85
2023/03/13 07:36:26;;;;;;;;;;;11.90;59.10;;;10.57;59.68;99704.09;12256670;19;19919;-86
2023/03/13 07:40:28;;;;;;;;;;;12.00;60.40;;;10.50;59.59;99681.97;12256744;19;19943;-85
2023/03/13 07:44:29;;;;;;;;;;;12.00;59.30;;;10.55;59.60;99685.09;12258565;19;19982;-84
2023/03/13 07:48:33;;;;;;;;;;;12.00;59.50;;;10.41;59.75;99659.97;12268514;19;19919;-84
2023/03/13 07:52:35;;;;;;;;;;;12.00;59.00;;;10.62;59.75;99684.53;12270774;19;19943;-84
2023/03/13 07:56:37;;;;;;;;;;;12.10;59.60;;;10.66;59.78;99679.09;12274263;19;20302;-85
2023/03/13 08:00:38;;;;;;;;;;;12.10;59.40;;;10.65;59.69;99669.59;12274404;19;19918;-85
2023/03/13 08:04:40;;;;;;;;;;;12.10;59.70;;;10.71;59.71;99663.94;12272551;19;19991;-85
2023/03/13 08:08:42;;;;;;;;;;;12.10;60.70;;;10.68;59.81;99648.50;12273454;19;19933;-85
2023/03/13 08:12:44;;;;;;;;;;;12.20;60.10;;;10.77;59.86;99647.81;12264670;19;20472;-85
2023/03/13 08:16:45;;;;;;;;;;;12.20;60.10;;;10.77;59.98;99632.13;12273767;19;19914;-86
2023/03/13 08:20:47;;;;;;;;;;;12.10;62.00;;;10.81;59.91;99639.63;12269269;19;19922;-84
2023/03/13 08:24:48;;;;;;;;;;;12.20;60.50;;;10.88;59.82;99645.22;12266662;19;19911;-84
2023/03/13 08:28:58;;;;;;;;;;;12.30;60.20;;;10.87;59.82;99616.63;12272520;19;19915;-85
2023/03/13 08:33:00;;;;;;;;;;;12.30;59.90;;;10.91;59.71;99623.28;12261087;19;19930;-84
2023/03/13 08:37:01;;;;;;;;;;;12.30;61.00;;;10.89;59.89;99610.34;12270693;19;19918;-85
2023/03/13 08:41:03;;;;;;;;;;;12.40;59.90;;;10.94;59.91;99616.06;12267328;19;19915;-85
2023/03/13 08:45:05;;;;;;;;;;;12.40;60.10;;;11.06;59.76;99624.75;12271373;19;19915;-85
2023/03/13 08:49:07;;;;;;;;;;;12.40;60.90;;;10.88;59.93;99582.53;12270845;19;19938;-84
2023/03/13 08:53:09;;;;;;;;;;;12.40;61.30;;;11.01;60.09;99603.38;12269633;19;19922;-85
2023/03/13 08:57:10;;;;;;;;;;;12.50;60.30;;;10.92;60.05;99557.88;12273254;19;20552;-85
2023/03/13 09:01:13;;;;;;;;;;;12.50;59.90;;;11.03;60.13;99575.34;12272795;19;19926;-86
2023/03/13 09:05:14;;;;;;;;;;;12.60;60.60;;;11.11;60.14;99573.00;12272884;19;19953;-85
2023/03/13 09:09:16;;;;;;;;;;;12.60;62.00;;;11.04;60.03;99545.66;12267208;19;20361;-85
2023/03/13 09:13:17;;;;;;;;;;;12.70;61.90;;;11.35;60.20;99575.50;12266460;19;19914;-85
2023/03/13 09:17:19;;;;;;;;;;;12.70;62.40;;;11.36;60.23;99563.28;12271832;19;19911;-85
2023/03/13 09:21:23;;;;;;;;;;;12.80;61.80;;;11.41;60.11;99563.75;12267413;19;19923;-85
2023/03/13 09:25:25;;;;;;;;;;;12.90;61.30;;;11.39;60.12;99545.56;12266008;19;19943;-84
2023/03/13 09:29:27;;;;;;;;;;;12.90;60.80;;;11.49;60.19;99551.75;12270228;19;19935;-84
2023/03/13 09:33:28;;;;;;;;;;;12.90;60.80;;;11.23;60.08;99517.19;12265195;19;19919;-85
2023/03/13 09:37:29;;;;;;;;;;;12.90;60.50;;;11.57;60.07;99555.56;12268702;19;19907;-85
2023/03/13 09:41:50;;;;;;;;;;;13.00;61.50;;;11.66;60.27;99566.09;12266188;19;19924;-85
2023/03/13 09:45:53;;;;;;;;;;;13.00;60.80;;;11.65;60.14;99555.78;12265421;19;19932;-85
2023/03/13 09:50:27;;;;;;;;;;;13.10;60.80;;;11.66;60.18;99552.19;12263538;19;19983;-84
2023/03/13 09:54:39;;;;;;;;;;;13.10;61.20;;;11.77;60.19;99554.78;12265626;19;19932;-85
2023/03/13 09:58:49;;;;;;;;;;;13.10;60.80;;;11.73;60.22;99548.16;12264629;19;19934;-85
2023/03/13 10:03:12;;;;;;;;;;;13.20;60.90;;;11.76;60.43;99528.78;12261912;19;19923;-85
2023/03/13 10:07:13;;;;;;;;;;;13.20;62.00;;;11.91;60.29;99551.16;12259995;19;19942;-85
2023/03/13 10:11:39;;;;;;;;;;;13.30;61.50;;;11.88;60.41;99525.19;12259385;19;19930;-85
2023/03/13 10:15:52;;;;;;;;;;;13.30;61.30;;;11.90;60.33;99531.97;12260066;19;19915;-85
2023/03/13 10:20:01;;;;;;;;;;;13.40;60.60;;;11.93;60.40;99529.13;12260058;19;19915;-86
2023/03/13 10:24:28;;;;;;;;;;;13.40;61.50;;;12.07;60.33;99532.41;12258232;19;19919;-85
2023/03/13 10:28:31;;;;;;;;;;;13.40;62.10;;;12.11;60.25;99539.91;12259912;19;19942;-85
2023/03/13 10:32:32;;;;;;;;;;;13.50;61.40;;;12.08;60.32;99521.00;12256121;19;19915;-85
2023/03/13 10:36:53;;;;;;;;;;;13.50;60.60;;;12.14;60.45;99515.25;12255329;19;19915;-88
2023/03/13 10:40:57;;;;;;;;;;;13.50;61.20;;;12.22;60.45;99528.56;12258528;19;19998;-84
2023/03/13 10:45:02;;;;;;;;;;;13.60;63.80;;;12.19;60.35;99500.03;12257998;19;19915;-84
2023/03/13 10:49:20;;;;;;;;;;;13.70;63.00;;;12.32;60.42;99513.78;12259702;19;20626;-85
2023/03/13 10:53:29;;;;;;;;;;;13.70;62.40;;;12.39;60.52;99509.69;12253790;19;19936;-88
2023/03/13 10:57:33;;;;;;;;;;;13.70;63.30;;;12.49;60.49;99509.75;12249414;19;20341;-86
2023/03/13 11:01:43;;;;;;;;;;;13.80;63.20;;;12.44;60.53;99474.44;12251501;19;19961;-85
2023/03/13 11:05:59;;;;;;;;;;;13.90;62.10;;;12.62;60.48;99488.63;12255618;19;19923;-85
2023/03/13 11:10:17;;;;;;;;;;;14.00;63.40;;;12.69;60.47;99468.81;12254941;19;20598;-85
2023/03/13 11:14:21;;;;;;;;;;;14.00;63.00;;;12.57;60.63;99431.38;12253032;19;19927;-85
2023/03/13 11:19:00;;;;;;;;;;;14.10;63.70;;;12.90;60.52;99454.84;12258140;19;19936;-85
2023/03/13 11:23:20;;;;;;;;;;;14.20;62.50;;;12.99;60.67;99454.91;12252902;19;19928;-86
2023/03/13 11:27:40;;;;;;;;;;;14.30;62.30;;;13.09;60.59;99447.06;12262400;19;19919;-85
2023/03/13 11:31:48;;;;;;;;;;;14.40;61.90;;;13.11;60.65;99421.56;12265239;19;19929;-85
2023/03/13 11:36:00;;;;;;;;;;;14.50;63.00;;;13.27;60.67;99435.03;12269364;19;19919;-85
2023/03/13 11:40:24;;;;;;;;;;;14.60;62.00;;;13.40;60.68;99433.97;12267739;19;19922;-84
2023/03/13 11:45:02;;;;;;;;;;;14.70;63.20;;;13.50;60.69;99430.41;12259366;19;19907;-85
2023/03/13 11:49:03;;;;;;;;;;;14.80;63.00;;;13.61;60.69;99428.59;12266036;19;19922;-85
2023/03/13 11:53:27;;;;;;;;;;;15.00;62.40;;;13.72;60.74;99442.44;12274211;19;19940;-87
2023/03/13 11:57:34;;;;;;;;;;;15.10;62.50;;;13.82;60.79;99425.84;12283741;19;19922;-86
2023/03/13 12:02:02;;;;;;;;;;;15.20;62.30;;;13.92;60.67;99427.53;12277553;19;19927;-86
2023/03/13 12:06:05;;;;;;;;;;;15.30;62.00;;;13.97;60.79;99407.91;12276887;19;19922;-85
2023/03/13 12:10:13;;;;;;;;;;;15.40;62.90;;;14.19;60.72;99430.41;12273788;19;19918;-86
2023/03/13 12:14:35;;;;;;;;;;;15.50;62.50;;;14.20;60.71;99413.69;12273310;19;19910;-85
2023/03/13 12:18:42;;;;;;;;;;;15.60;62.20;;;14.37;60.71;99420.88;12272092;19;20321;-86
2023/03/13 12:23:02;;;;;;;;;;;15.70;61.20;;;14.47;60.58;99405.06;12269513;19;20252;-85
2023/03/13 12:27:31;;;;;;;;;;;15.80;60.90;;;14.56;60.80;99402.44;12276600;19;19938;-85
2023/03/13 12:31:41;;;;;;;;;;;15.90;61.10;;;14.56;60.63;99384.06;12275487;19;20263;-85
2023/03/13 12:35:52;;;;;;;;;;;16.00;61.20;;;14.76;60.71;99390.06;12273031;19;19925;-86
2023/03/13 12:40:09;;;;;;;;;;;16.10;61.50;;;14.92;60.66;99393.88;12271106;19;19907;-85
2023/03/13 12:44:19;;;;;;;;;;;16.20;60.80;;;14.93;60.76;99371.88;12270682;19;20277;-85
2023/03/13 12:48:42;;;;;;;;;;;16.40;61.20;;;15.18;60.61;99381.72;12256782;19;20367;-86
2023/03/13 12:52:52;;;;;;;;;;;16.50;60.90;;;15.22;60.73;99372.53;12264776;19;19949;-87
2023/03/13 12:57:00;;;;;;;;;;;16.70;60.80;;;15.45;60.73;99365.06;12261985;19;20360;-88
2023/03/13 13:01:04;;;;;;;;;;;16.80;60.90;;;15.53;60.77;99360.84;12263305;19;19979;-86
2023/03/13 13:05:06;;;;;;;;;;;16.90;60.80;;;15.41;60.60;99308.44;12263137;19;19932;-86
2023/03/13 13:09:15;;;;;;;;;;;17.00;60.70;;;15.81;60.63;99349.28;12266372;19;20375;-86
2023/03/13 13:13:29;;;;;;;;;;;17.10;60.50;;;15.85;60.73;99329.59;12260945;19;19930;-86
2023/03/13 13:17:44;;;;;;;;;;;17.30;60.10;;;16.13;60.82;99342.63;12260894;19;20272;-86
2023/03/13 13:21:46;;;;;;;;;;;17.50;60.50;;;16.19;60.55;99335.91;12258212;19;19925;-86
2023/03/13 13:25:48;;;;;;;;;;;17.60;60.40;;;16.38;60.66;99335.69;12253023;19;19911;-85
2023/03/13 13:29:55;;;;;;;;;;;17.70;60.10;;;16.52;60.57;99332.44;12257373;19;19953;-86
2023/03/13 13:33:56;;;;;;;;;;;17.90;59.90;;;16.68;60.63;99342.25;12258441;19;19919;-86
2023/03/13 13:38:16;;;;;;;;;;;18.00;59.50;;;16.77;60.62;99338.72;12263282;19;19918;-86
2023/03/13 13:42:30;;;;;;;;;;;18.10;59.50;;;16.84;60.51;99351.25;12257978;19;19939;-86
2023/03/13 13:46:32;;;;;;;;;;;18.20;59.30;;;16.84;60.59;99324.88;12254656;19;19925;-84
2023/03/13 13:50:34;;;;;;;;;;;18.30;59.20;;;16.93;60.37;99329.19;12260094;19;19977;-86
2023/03/13 13:54:44;;;;;;;;;;;18.30;59.00;;;16.98;60.60;99338.25;12262568;19;20385;-85
2023/03/13 13:58:46;;;;;;;;;;;18.40;58.80;;;16.93;60.43;99319.50;12263023;19;19943;-86
2023/03/13 14:02:55;;;;;;;;;;;18.40;58.90;;;16.81;60.36;99292.56;12253049;19;19922;-88
2023/03/13 14:07:00;;;;;;;;;;;18.40;58.80;;;17.04;60.30;99334.19;12254852;19;19922;-86
2023/03/13 14:11:14;;;;;;;;;;;18.40;58.70;;;17.10;60.52;99333.53;12263272;19;19919;-86
2023/03/13 14:15:33;;;;;;;;;;;18.50;58.70;;;17.12;60.33;99339.50;12259861;19;19911;-86
2023/03/13 14:19:41;;;;;;;;;;;18.50;58.80;;;17.12;60.41;99325.44;12257732;19;19950;-86
2023/03/13 14:23:44;;;;;;;;;;;18.50;58.60;;;17.16;60.56;99324.97;12256457;19;20254;-86
2023/03/13 14:27:48;;;;;;;;;;;18.50;58.50;;;17.19;60.36;99315.91;12255121;19;19919;-86
2023/03/13 14:31:55;;;;;;;;;;;18.60;58.70;;;17.27;60.46;99318.56;12257528;19;19926;-85
2023/03/13 14:35:56;;;;;;;;;;;18.60;58.60;;;17.09;60.17;99286.22;12258646;19;19926;-86
2023/03/13 14:40:08;;;;;;;;;;;18.70;58.40;;;17.35;60.36;99296.66;12255865;19;19915;-86
2023/03/13 14:44:23;;;;;;;;;;;18.70;58.40;;;17.38;60.25;99314.78;12254720;19;19923;-85
2023/03/13 14:48:32;;;;;;;;;;;18.80;58.60;;;17.43;60.16;99299.28;12255109;19;19937;-86
2023/03/13 14:52:34;;;;;;;;;;;18.80;58.20;;;17.46;60.29;99304.22;12253805;19;19934;-86
2023/03/13 14:56:41;;;;;;;;;;;18.80;58.30;;;17.33;60.27;99261.66;12255774;19;19932;-86
2023/03/13 15:00:43;;;;;;;;;;;18.90;58.50;;;17.29;60.02;99255.09;12258706;19;19907;-86
2023/03/13 15:04:58;;;;;;;;;;;18.90;58.20;;;17.59;59.96;99304.56;12285724;19;20311;-86
2023/03/13 15:09:09;;;;;;;;;;;18.90;58.40;;;17.61;60.18;99301.78;12294461;19;19943;-87
2023/03/13 15:13:37;;;;;;;;;;;18.90;58.10;;;17.52;60.07;99274.53;12290350;19;19923;-86
2023/03/13 15:17:38;;;;;;;;;;;18.90;58.00;;;17.59;59.97;99278.19;12290770;19;19911;-86
2023/03/13 15:21:40;;;;;;;;;;;18.90;57.90;;;17.59;59.88;99266.78;12271925;19;19933;-87
2023/03/13 15:25:41;;;;;;;;;;;18.90;58.20;;;17.62;59.86;99267.28;12273028;19;19911;-84
2023/03/13 15:29:44;;;;;;;;;;;18.90;57.40;;;17.34;59.88;99223.75;12272942;19;19914;-85
2023/03/13 15:33:47;;;;;;;;;;;19.00;58.10;;;17.62;60.01;99256.72;12267972;19;19914;-85
2023/03/13 15:37:49;;;;;;;;;;;19.00;58.10;;;17.58;59.87;99244.84;12267420;19;19914;-86
2023/03/13 15:41:52;;;;;;;;;;;19.00;58.10;;;17.68;59.73;99253.41;12263080;19;20305;-83
2023/03/13 15:45:54;;;;;;;;;;;19.00;57.30;;;17.65;59.83;99250.28;12259499;19;19943;-87
2023/03/13 15:49:56;;;;;;;;;;;18.90;57.80;;;17.51;59.96;99228.03;12254130;19;19915;-86
2023/03/13 15:53:57;;;;;;;;;;;19.00;57.80;;;17.58;60.02;99231.66;12252391;19;19927;-85
2023/03/13 15:57:59;;;;;;;;;;;18.90;57.70;;;17.61;59.71;99220.75;12255787;19;19922;-86
2023/03/13 16:02:01;;;;;;;;;;;18.90;57.50;;;17.59;59.89;99225.38;12254962;19;19936;-86
2023/03/13 16:06:19;;;;;;;;;;;18.90;57.60;;;17.60;59.91;99227.00;12264211;19;19923;-86
2023/03/13 16:10:27;;;;;;;;;;;18.80;57.20;;;17.51;59.78;99201.63;12268816;19;19934;-86
2023/03/13 16:14:28;;;;;;;;;;;18.80;57.40;;;17.34;59.71;99174.44;12269335;19;19926;-87
2023/03/13 16:18:30;;;;;;;;;;;18.80;57.40;;;17.53;59.82;99206.75;12269416;19;19930;-87
2023/03/13 16:22:32;;;;;;;;;;;18.80;57.50;;;17.43;59.82;99180.53;12262752;19;20770;-86
2023/03/13 16:26:33;;;;;;;;;;;18.80;57.30;;;17.39;59.53;99168.66;12260599;19;19926;-87
2023/03/13 16:30:35;;;;;;;;;;;18.80;57.60;;;17.50;59.67;99173.59;12261903;19;19922;-86
2023/03/13 16:34:37;;;;;;;;;;;18.70;57.00;;;17.39;59.87;99144.91;12264926;19;19918;-86
2023/03/13 16:38:38;;;;;;;;;;;18.70;56.60;;;17.48;59.75;99165.03;12266929;19;20234;-86
2023/03/13 16:42:40;;;;;;;;;;;18.70;57.20;;;17.45;59.56;99168.81;12257221;19;19919;-86
2023/03/13 16:46:45;;;;;;;;;;;18.70;57.50;;;17.43;59.76;99160.22;12263833;19;19919;-86
2023/03/13 16:50:46;;;;;;;;;;;18.60;57.30;;;17.41;59.45;99140.28;12264661;19;19940;-86
2023/03/13 16:54:48;;;;;;;;;;;18.70;57.40;;;17.12;59.65;99107.38;12257506;19;19915;-85
2023/03/13 16:58:50;;;;;;;;;;;18.60;57.60;;;17.37;59.46;99144.25;12260724;19;20017;-86
2023/03/13 17:02:52;;;;;;;;;;;18.60;57.60;;;17.24;59.45;99107.81;12251525;19;19911;-85
2023/03/13 17:06:53;;;;;;;;;;;18.60;57.60;;;17.23;59.50;99112.28;12245039;19;20308;-87
2023/03/13 17:10:55;;;;;;;;;;;18.60;57.70;;;17.08;59.46;99087.56;12245753;19;20548;-86
2023/03/13 17:14:56;;;;;;;;;;;18.50;57.50;;;17.24;59.73;99113.91;12247604;19;19982;-86
2023/03/13 17:18:58;;;;;;;;;;;18.50;57.50;;;17.27;59.55;99125.13;12245766;19;19955;-86
2023/03/13 17:23:00;;;;;;;;;;;18.50;57.50;;;17.28;59.31;99126.78;12242382;19;20261;-86
2023/03/13 17:27:01;;;;;;;;;;;18.50;57.50;;;16.99;59.30;99096.50;12247499;19;20268;-86
2023/03/13 17:31:03;;;;;;;;;;;18.40;57.30;;;17.23;59.55;99141.31;12251405;19;20779;-86
2023/03/13 17:35:05;;;;;;;;;;;18.40;57.50;;;17.13;59.29;99132.75;12249831;19;19911;-86
2023/03/13 17:39:09;;;;;;;;;;;18.40;57.50;;;17.13;59.52;99143.28;12256494;19;19961;-86
2023/03/13 17:43:11;;;;;;;;;;;18.50;57.60;;;17.09;59.28;99123.50;12258021;19;20338;-87
2023/03/13 17:47:15;;;;;;;;;;;18.40;57.60;;;17.12;59.23;99160.13;12257151;19;19961;-87
2023/03/13 17:51:26;;;;;;;;;;;18.30;57.50;;;17.12;59.37;99157.47;12258791;19;19922;-86
2023/03/13 17:55:27;;;;;;;;;;;18.30;57.10;;;16.98;59.40;99137.84;12257315;19;19926;-87
2023/03/13 17:59:29;;;;;;;;;;;18.20;57.30;;;16.86;59.51;99112.00;12261288;19;19914;-87
2023/03/13 18:03:31;;;;;;;;;;;18.20;56.90;;;17.01;59.25;99142.81;12258589;19;19911;-86
2023/03/13 18:07:32;;;;;;;;;;;18.20;57.40;;;16.94;59.22;99141.00;12258410;19;20264;-86
2023/03/13 18:11:36;;;;;;;;;;;18.20;57.20;;;16.79;59.38;99102.06;12259775;19;19923;-86
2023/03/13 18:15:38;;;;;;;;;;;18.20;57.20;;;16.93;59.28;99107.69;12261127;19;19919;-86
2023/03/13 18:19:41;;;;;;;;;;;18.20;57.50;;;16.97;59.13;99130.94;12260084;19;19918;-86
2023/03/13 18:23:43;;;;;;;;;;;18.10;57.30;;;17.01;59.26;99134.03;12257601;19;19926;-86
2023/03/13 18:27:45;;;;;;;;;;;18.20;57.60;;;16.96;59.36;99126.66;12256317;19;19915;-86
2023/03/13 18:31:46;;;;;;;;;;;18.20;57.30;;;16.84;59.29;99087.59;12258732;19;19931;-86
2023/03/13 18:35:48;;;;;;;;;;;18.10;57.00;;;16.86;59.36;99101.44;12260539;19;19943;-86
2023/03/13 18:39:50;;;;;;;;;;;18.10;57.50;;;16.89;59.40;99087.91;12255883;19;19914;-87
2023/03/13 18:43:51;;;;;;;;;;;18.10;57.60;;;16.98;59.32;99100.91;12259065;19;19919;-86